sensor_id;sensor_type;location;lat;lon;timestamp;pressure;altitude;pressure_sealevel;temperature;humidity
71956;BME280;59829;50.562;6.258;2022-08-30T00:05:14;96099.03;;;18.55;50.86
71956;BME280;59829;50.562;6.258;2022-08-30T00:15:41;96088.66;;;18.38;51.92
71956;BME280;59829;50.562;6.258;2022-08-30T00:25:55;96094.66;;;17.90;51.83
71956;BME280;59829;50.562;6.258;2022-08-30T00:36:01;96085.41;;;18.04;52.11
71956;BME280;59829;50.562;6.258;2022-08-30T01:06:54;96105.41;;;17.53;53.35
71956;BME280;59829;50.562;6.258;2022-08-30T01:17:17;96091.41;;;17.80;52.38
71956;BME280;59829;50.562;6.258;2022-08-30T01:27:50;96093.75;;;17.57;52.90
71956;BME280;59829;50.562;6.258;2022-08-30T01:38:21;96099.75;;;17.15;54.06
71956;BME280;59829;50.562;6.258;2022-08-30T01:58:53;96103.88;;;16.92;55.40
71956;BME280;59829;50.562;6.258;2022-08-30T02:09:06;96092.34;;;17.21;54.95
71956;BME280;59829;50.562;6.258;2022-08-30T02:19:19;96078.84;;;16.67;55.22
71956;BME280;59829;50.562;6.258;2022-08-30T02:29:30;96092.03;;;17.24;55.06
71956;BME280;59829;50.562;6.258;2022-08-30T02:39:59;96088.19;;;16.94;54.47
71956;BME280;59829;50.562;6.258;2022-08-30T02:50:33;96079.38;;;17.12;54.86
71956;BME280;59829;50.562;6.258;2022-08-30T03:01:08;96082.53;;;16.98;55.55
71956;BME280;59829;50.562;6.258;2022-08-30T03:11:21;96068.94;;;16.96;55.75
71956;BME280;59829;50.562;6.258;2022-08-30T03:32:08;96061.50;;;16.41;56.87
71956;BME280;59829;50.562;6.258;2022-08-30T03:42:29;96053.88;;;16.83;56.51
71956;BME280;59829;50.562;6.258;2022-08-30T03:52:41;96067.25;;;16.79;56.19
71956;BME280;59829;50.562;6.258;2022-08-30T04:02:54;96061.69;;;16.48;57.53
71956;BME280;59829;50.562;6.258;2022-08-30T04:13:11;96072.59;;;16.59;56.99
71956;BME280;59829;50.562;6.258;2022-08-30T04:23:21;96065.50;;;16.36;57.83
71956;BME280;59829;50.562;6.258;2022-08-30T05:37:06;96098.75;;;16.31;58.87
71956;BME280;59829;50.562;6.258;2022-08-30T05:47:07;96098.66;;;16.40;58.99
71956;BME280;59829;50.562;6.258;2022-08-30T05:57:08;96094.34;;;16.67;59.25
71956;BME280;59829;50.562;6.258;2022-08-30T06:07:09;96085.00;;;16.74;59.57
71956;BME280;59829;50.562;6.258;2022-08-30T06:17:10;96088.41;;;16.31;62.96
71956;BME280;59829;50.562;6.258;2022-08-30T06:27:11;96090.50;;;16.71;62.31
71956;BME280;59829;50.562;6.258;2022-08-30T06:37:11;96097.00;;;17.17;61.07
71956;BME280;59829;50.562;6.258;2022-08-30T06:47:12;96099.56;;;17.51;60.66
71956;BME280;59829;50.562;6.258;2022-08-30T06:57:13;96105.50;;;17.77;56.84
71956;BME280;59829;50.562;6.258;2022-08-30T07:07:14;96112.03;;;18.22;55.51
71956;BME280;59829;50.562;6.258;2022-08-30T07:17:15;96097.06;;;18.57;51.81
71956;BME280;59829;50.562;6.258;2022-08-30T07:27:35;96106.81;;;18.79;52.29
71956;BME280;59829;50.562;6.258;2022-08-30T07:37:36;96103.50;;;19.10;50.80
71956;BME280;59829;50.562;6.258;2022-08-30T07:47:37;96104.72;;;19.30;49.00
71956;BME280;59829;50.562;6.258;2022-08-30T07:57:38;96106.06;;;19.57;49.14
71956;BME280;59829;50.562;6.258;2022-08-30T08:07:39;96105.84;;;19.67;48.27
71956;BME280;59829;50.562;6.258;2022-08-30T08:17:40;96115.81;;;19.86;49.22
71956;BME280;59829;50.562;6.258;2022-08-30T08:27:41;96105.66;;;19.99;48.53
71956;BME280;59829;50.562;6.258;2022-08-30T08:37:42;96108.41;;;20.43;47.23
71956;BME280;59829;50.562;6.258;2022-08-30T08:57:44;96090.88;;;21.34;44.78
71956;BME280;59829;50.562;6.258;2022-08-30T09:07:50;96093.81;;;22.39;45.32
71956;BME280;59829;50.562;6.258;2022-08-30T09:17:57;96096.13;;;22.55;41.87
71956;BME280;59829;50.562;6.258;2022-08-30T09:28:10;96090.44;;;23.01;41.53
71956;BME280;59829;50.562;6.258;2022-08-30T09:38:23;96097.84;;;23.39;41.03
71956;BME280;59829;50.562;6.258;2022-08-30T10:29:33;96078.75;;;24.06;38.04
71956;BME280;59829;50.562;6.258;2022-08-30T10:39:42;96080.78;;;24.17;37.85
71956;BME280;59829;50.562;6.258;2022-08-30T10:49:46;96079.41;;;26.96;32.45
71956;BME280;59829;50.562;6.258;2022-08-30T11:00:00;96056.72;;;28.75;30.24
71956;BME280;59829;50.562;6.258;2022-08-30T11:10:20;96065.63;;;27.19;32.00
71956;BME280;59829;50.562;6.258;2022-08-30T11:20:47;96066.00;;;26.80;33.13
71956;BME280;59829;50.562;6.258;2022-08-30T17:38:49;95960.94;;;23.53;45.00
71956;BME280;59829;50.562;6.258;2022-08-30T17:48:50;95969.13;;;23.24;45.75
71956;BME280;59829;50.562;6.258;2022-08-30T17:58:51;95965.94;;;23.35;46.02
71956;BME280;59829;50.562;6.258;2022-08-30T18:08:51;95984.78;;;23.10;46.29
71956;BME280;59829;50.562;6.258;2022-08-30T18:18:53;95989.75;;;22.99;46.66
71956;BME280;59829;50.562;6.258;2022-08-30T18:28:54;95999.19;;;22.93;46.49
71956;BME280;59829;50.562;6.258;2022-08-30T18:38:55;96009.53;;;22.80;46.79
71956;BME280;59829;50.562;6.258;2022-08-30T18:48:55;96017.84;;;22.62;46.84
71956;BME280;59829;50.562;6.258;2022-08-30T18:58:56;96022.28;;;22.62;46.73
71956;BME280;59829;50.562;6.258;2022-08-30T19:08:56;96021.00;;;22.51;47.31
71956;BME280;59829;50.562;6.258;2022-08-30T19:18:57;96027.72;;;22.39;47.57
71956;BME280;59829;50.562;6.258;2022-08-30T19:28:57;96027.97;;;22.16;47.74
71956;BME280;59829;50.562;6.258;2022-08-30T19:38:58;96035.28;;;22.27;47.73
71956;BME280;59829;50.562;6.258;2022-08-30T19:48:58;96035.03;;;22.01;48.26
71956;BME280;59829;50.562;6.258;2022-08-30T19:59:00;96042.16;;;22.07;47.92
71956;BME280;59829;50.562;6.258;2022-08-30T20:09:00;96049.78;;;21.87;48.36
71956;BME280;59829;50.562;6.258;2022-08-30T20:19:01;96049.78;;;21.87;48.34
71956;BME280;59829;50.562;6.258;2022-08-30T20:29:03;96051.94;;;21.83;48.74
71956;BME280;59829;50.562;6.258;2022-08-30T20:39:03;96045.47;;;21.58;49.02
71956;BME280;59829;50.562;6.258;2022-08-30T20:49:08;96041.97;;;21.51;49.14
71956;BME280;59829;50.562;6.258;2022-08-30T20:59:09;96037.50;;;21.45;49.37
71956;BME280;59829;50.562;6.258;2022-08-30T21:09:11;96041.72;;;21.46;49.26
71956;BME280;59829;50.562;6.258;2022-08-30T21:19:11;96054.50;;;21.41;49.21
71956;BME280;59829;50.562;6.258;2022-08-30T21:29:12;96054.88;;;21.38;49.50
71956;BME280;59829;50.562;6.258;2022-08-30T21:39:24;96062.25;;;21.19;50.32
71956;BME280;59829;50.562;6.258;2022-08-30T21:49:25;96076.25;;;21.18;50.96
71956;BME280;59829;50.562;6.258;2022-08-30T21:59:26;96073.84;;;20.87;52.14
71956;BME280;59829;50.562;6.258;2022-08-30T22:09:27;96071.41;;;20.86;51.84
71956;BME280;59829;50.562;6.258;2022-08-30T22:19:28;96066.00;;;20.72;52.32
71956;BME280;59829;50.562;6.258;2022-08-30T22:29:29;96060.44;;;20.75;52.28
71956;BME280;59829;50.562;6.258;2022-08-30T22:39:29;96066.63;;;20.60;52.45
71956;BME280;59829;50.562;6.258;2022-08-30T22:49:30;96050.56;;;20.56;52.21
71956;BME280;59829;50.562;6.258;2022-08-30T22:59:31;96045.91;;;20.66;52.13
71956;BME280;59829;50.562;6.258;2022-08-30T23:09:31;96052.25;;;20.64;51.81
71956;BME280;59829;50.562;6.258;2022-08-30T23:19:31;96047.88;;;20.50;52.36
71956;BME280;59829;50.562;6.258;2022-08-30T23:29:33;96041.41;;;20.60;52.18
